sensor_id;sensor_type;location;lat;lon;timestamp;temperature;humidity
17687;DHT22;8962;52.538;13.266;2023-07-08T00:00:24;17.90;99.90
17687;DHT22;8962;52.538;13.266;2023-07-08T00:02:52;17.90;99.90
17687;DHT22;8962;52.538;13.266;2023-07-08T00:05:21;17.80;99.90
17687;DHT22;8962;52.538;13.266;2023-07-08T00:07:51;17.80;99.90
17687;DHT22;8962;52.538;13.266;2023-07-08T00:10:22;17.80;99.90
17687;DHT22;8962;52.538;13.266;2023-07-08T00:12:51;17.70;99.90
17687;DHT22;8962;52.538;13.266;2023-07-08T00:15:19;17.80;99.90
17687;DHT22;8962;52.538;13.266;2023-07-08T00:17:47;17.70;99.90
17687;DHT22;8962;52.538;13.266;2023-07-08T00:20:16;17.60;99.90
17687;DHT22;8962;52.538;13.266;2023-07-08T00:22:44;17.60;99.90
17687;DHT22;8962;52.538;13.266;2023-07-08T00:25:17;17.50;99.90
17687;DHT22;8962;52.538;13.266;2023-07-08T00:27:45;17.50;99.90
17687;DHT22;8962;52.538;13.266;2023-07-08T00:30:22;17.50;99.90
17687;DHT22;8962;52.538;13.266;2023-07-08T00:32:49;17.50;99.90
17687;DHT22;8962;52.538;13.266;2023-07-08T00:35:36;17.40;99.90
17687;DHT22;8962;52.538;13.266;2023-07-08T00:38:12;17.30;99.90
17687;DHT22;8962;52.538;13.266;2023-07-08T00:40:51;17.30;99.90
17687;DHT22;8962;52.538;13.266;2023-07-08T00:43:19;17.20;99.90
17687;DHT22;8962;52.538;13.266;2023-07-08T00:45:50;17.20;99.90
17687;DHT22;8962;52.538;13.266;2023-07-08T00:48:22;17.10;99.90
17687;DHT22;8962;52.538;13.266;2023-07-08T00:50:50;17.10;99.90
17687;DHT22;8962;52.538;13.266;2023-07-08T00:53:28;17.10;99.90
17687;DHT22;8962;52.538;13.266;2023-07-08T00:55:59;17.10;99.90
17687;DHT22;8962;52.538;13.266;2023-07-08T00:58:32;17.10;99.90
17687;DHT22;8962;52.538;13.266;2023-07-08T01:01:01;17.10;99.90
17687;DHT22;8962;52.538;13.266;2023-07-08T01:03:31;17.10;99.90
17687;DHT22;8962;52.538;13.266;2023-07-08T01:06:01;17.10;99.90
17687;DHT22;8962;52.538;13.266;2023-07-08T01:08:29;17.10;99.90
17687;DHT22;8962;52.538;13.266;2023-07-08T01:11:02;17.10;99.90
17687;DHT22;8962;52.538;13.266;2023-07-08T01:13:35;17.00;99.90
17687;DHT22;8962;52.538;13.266;2023-07-08T01:16:04;17.00;99.90
17687;DHT22;8962;52.538;13.266;2023-07-08T01:18:32;17.00;99.90
17687;DHT22;8962;52.538;13.266;2023-07-08T01:21:04;16.90;99.90
17687;DHT22;8962;52.538;13.266;2023-07-08T01:23:35;16.90;99.90
17687;DHT22;8962;52.538;13.266;2023-07-08T01:26:03;16.90;99.90
17687;DHT22;8962;52.538;13.266;2023-07-08T01:28:31;16.80;99.90
17687;DHT22;8962;52.538;13.266;2023-07-08T01:30:59;16.80;99.90
17687;DHT22;8962;52.538;13.266;2023-07-08T01:33:27;16.70;99.90
17687;DHT22;8962;52.538;13.266;2023-07-08T01:35:55;16.70;99.90
17687;DHT22;8962;52.538;13.266;2023-07-08T01:38:26;16.70;99.90
17687;DHT22;8962;52.538;13.266;2023-07-08T01:40:56;16.60;99.90
17687;DHT22;8962;52.538;13.266;2023-07-08T01:43:23;16.60;99.90
17687;DHT22;8962;52.538;13.266;2023-07-08T01:45:51;16.60;99.90
17687;DHT22;8962;52.538;13.266;2023-07-08T01:48:22;16.50;99.90
17687;DHT22;8962;52.538;13.266;2023-07-08T01:50:54;16.50;99.90
17687;DHT22;8962;52.538;13.266;2023-07-08T01:53:29;16.50;99.90
17687;DHT22;8962;52.538;13.266;2023-07-08T01:55:57;16.50;99.90
17687;DHT22;8962;52.538;13.266;2023-07-08T01:58:26;16.50;99.90
17687;DHT22;8962;52.538;13.266;2023-07-08T02:00:54;16.60;99.90
17687;DHT22;8962;52.538;13.266;2023-07-08T02:03:23;16.60;99.90
17687;DHT22;8962;52.538;13.266;2023-07-08T02:05:50;16.60;99.90
17687;DHT22;8962;52.538;13.266;2023-07-08T02:08:17;16.60;99.90
17687;DHT22;8962;52.538;13.266;2023-07-08T02:10:50;16.50;99.90
17687;DHT22;8962;52.538;13.266;2023-07-08T02:13:20;16.50;99.90
17687;DHT22;8962;52.538;13.266;2023-07-08T02:15:47;16.50;99.90
17687;DHT22;8962;52.538;13.266;2023-07-08T02:18:15;16.50;99.90
17687;DHT22;8962;52.538;13.266;2023-07-08T02:20:45;16.40;99.90
17687;DHT22;8962;52.538;13.266;2023-07-08T02:23:13;16.50;99.90
17687;DHT22;8962;52.538;13.266;2023-07-08T02:25:40;16.40;99.90
17687;DHT22;8962;52.538;13.266;2023-07-08T02:28:07;16.40;99.90
17687;DHT22;8962;52.538;13.266;2023-07-08T02:30:36;16.30;99.90
17687;DHT22;8962;52.538;13.266;2023-07-08T02:33:03;16.30;99.90
17687;DHT22;8962;52.538;13.266;2023-07-08T02:35:31;16.30;99.90
17687;DHT22;8962;52.538;13.266;2023-07-08T02:37:58;16.30;99.90
17687;DHT22;8962;52.538;13.266;2023-07-08T02:40:25;16.20;99.90
17687;DHT22;8962;52.538;13.266;2023-07-08T02:42:53;16.20;99.90
17687;DHT22;8962;52.538;13.266;2023-07-08T02:45:21;16.10;99.90
17687;DHT22;8962;52.538;13.266;2023-07-08T02:47:49;16.10;99.90
17687;DHT22;8962;52.538;13.266;2023-07-08T02:50:17;16.10;99.90
17687;DHT22;8962;52.538;13.266;2023-07-08T02:52:44;16.10;99.90
17687;DHT22;8962;52.538;13.266;2023-07-08T02:55:11;16.00;99.90
17687;DHT22;8962;52.538;13.266;2023-07-08T02:57:38;16.00;99.90
17687;DHT22;8962;52.538;13.266;2023-07-08T03:00:07;16.00;99.90
17687;DHT22;8962;52.538;13.266;2023-07-08T03:02:34;16.00;99.90
17687;DHT22;8962;52.538;13.266;2023-07-08T03:05:03;16.00;99.90
17687;DHT22;8962;52.538;13.266;2023-07-08T03:07:31;15.90;99.90
17687;DHT22;8962;52.538;13.266;2023-07-08T03:09:58;15.90;99.90
17687;DHT22;8962;52.538;13.266;2023-07-08T03:12:25;15.90;99.90
17687;DHT22;8962;52.538;13.266;2023-07-08T03:14:54;16.00;99.90
17687;DHT22;8962;52.538;13.266;2023-07-08T03:17:21;16.00;99.90
17687;DHT22;8962;52.538;13.266;2023-07-08T03:19:48;16.00;99.90
17687;DHT22;8962;52.538;13.266;2023-07-08T03:22:17;16.00;99.90
17687;DHT22;8962;52.538;13.266;2023-07-08T03:24:44;16.00;99.90
17687;DHT22;8962;52.538;13.266;2023-07-08T03:27:16;15.90;99.90
17687;DHT22;8962;52.538;13.266;2023-07-08T03:29:44;15.90;99.90
17687;DHT22;8962;52.538;13.266;2023-07-08T03:32:12;15.90;99.90
17687;DHT22;8962;52.538;13.266;2023-07-08T03:34:41;15.90;99.90
17687;DHT22;8962;52.538;13.266;2023-07-08T03:37:09;15.90;99.90
17687;DHT22;8962;52.538;13.266;2023-07-08T03:39:38;15.90;99.90
17687;DHT22;8962;52.538;13.266;2023-07-08T03:42:06;15.90;99.90
17687;DHT22;8962;52.538;13.266;2023-07-08T03:44:34;15.90;99.90
17687;DHT22;8962;52.538;13.266;2023-07-08T03:47:01;16.00;99.90
17687;DHT22;8962;52.538;13.266;2023-07-08T03:49:29;16.00;99.90
17687;DHT22;8962;52.538;13.266;2023-07-08T03:51:57;16.00;99.90
17687;DHT22;8962;52.538;13.266;2023-07-08T03:54:24;16.00;99.90
17687;DHT22;8962;52.538;13.266;2023-07-08T03:56:56;16.10;99.90
17687;DHT22;8962;52.538;13.266;2023-07-08T03:59:26;16.10;99.90
17687;DHT22;8962;52.538;13.266;2023-07-08T04:01:56;16.20;99.90
17687;DHT22;8962;52.538;13.266;2023-07-08T04:04:25;16.20;99.90
17687;DHT22;8962;52.538;13.266;2023-07-08T04:06:52;16.20;99.90
17687;DHT22;8962;52.538;13.266;2023-07-08T04:09:20;16.30;99.90
17687;DHT22;8962;52.538;13.266;2023-07-08T04:11:47;16.40;99.90
17687;DHT22;8962;52.538;13.266;2023-07-08T04:14:16;16.40;99.90
17687;DHT22;8962;52.538;13.266;2023-07-08T04:16:49;16.50;99.90
17687;DHT22;8962;52.538;13.266;2023-07-08T04:19:17;16.60;99.90
17687;DHT22;8962;52.538;13.266;2023-07-08T04:21:45;16.70;99.90
17687;DHT22;8962;52.538;13.266;2023-07-08T04:24:14;16.70;99.90
17687;DHT22;8962;52.538;13.266;2023-07-08T04:26:43;16.70;99.90
17687;DHT22;8962;52.538;13.266;2023-07-08T04:29:12;16.80;99.90
17687;DHT22;8962;52.538;13.266;2023-07-08T04:31:41;16.80;99.90
17687;DHT22;8962;52.538;13.266;2023-07-08T04:34:09;16.90;99.90
17687;DHT22;8962;52.538;13.266;2023-07-08T04:36:36;17.00;99.90
17687;DHT22;8962;52.538;13.266;2023-07-08T04:39:05;17.10;99.90
17687;DHT22;8962;52.538;13.266;2023-07-08T04:41:33;17.20;99.90
17687;DHT22;8962;52.538;13.266;2023-07-08T04:44:00;17.30;99.90
17687;DHT22;8962;52.538;13.266;2023-07-08T04:46:33;17.30;99.90
17687;DHT22;8962;52.538;13.266;2023-07-08T04:49:04;17.40;99.90
17687;DHT22;8962;52.538;13.266;2023-07-08T04:51:32;17.50;99.90
17687;DHT22;8962;52.538;13.266;2023-07-08T04:53:59;17.60;99.90
17687;DHT22;8962;52.538;13.266;2023-07-08T04:56:35;17.70;99.90
17687;DHT22;8962;52.538;13.266;2023-07-08T04:59:03;17.80;99.90
17687;DHT22;8962;52.538;13.266;2023-07-08T05:01:30;17.90;99.90
17687;DHT22;8962;52.538;13.266;2023-07-08T05:03:58;18.10;99.90
17687;DHT22;8962;52.538;13.266;2023-07-08T05:06:27;18.20;99.90
17687;DHT22;8962;52.538;13.266;2023-07-08T05:08:54;18.30;99.90
17687;DHT22;8962;52.538;13.266;2023-07-08T05:11:21;18.40;99.90
17687;DHT22;8962;52.538;13.266;2023-07-08T05:13:48;18.50;99.90
17687;DHT22;8962;52.538;13.266;2023-07-08T05:16:16;18.70;99.90
17687;DHT22;8962;52.538;13.266;2023-07-08T05:18:43;18.80;99.90
17687;DHT22;8962;52.538;13.266;2023-07-08T05:21:10;18.90;99.90
17687;DHT22;8962;52.538;13.266;2023-07-08T05:23:39;19.00;99.90
17687;DHT22;8962;52.538;13.266;2023-07-08T05:26:07;19.10;99.90
17687;DHT22;8962;52.538;13.266;2023-07-08T05:28:34;19.20;99.90
17687;DHT22;8962;52.538;13.266;2023-07-08T05:31:01;19.30;99.90
17687;DHT22;8962;52.538;13.266;2023-07-08T05:33:30;19.40;99.90
17687;DHT22;8962;52.538;13.266;2023-07-08T05:35:57;19.50;99.90
17687;DHT22;8962;52.538;13.266;2023-07-08T05:38:25;19.60;99.90
17687;DHT22;8962;52.538;13.266;2023-07-08T05:40:56;19.70;99.90
17687;DHT22;8962;52.538;13.266;2023-07-08T05:43:24;19.80;99.90
17687;DHT22;8962;52.538;13.266;2023-07-08T05:45:51;20.00;99.90
17687;DHT22;8962;52.538;13.266;2023-07-08T05:48:19;20.10;99.90
17687;DHT22;8962;52.538;13.266;2023-07-08T05:50:46;20.20;99.90
17687;DHT22;8962;52.538;13.266;2023-07-08T05:53:14;20.40;99.90
17687;DHT22;8962;52.538;13.266;2023-07-08T05:55:41;20.50;99.90
17687;DHT22;8962;52.538;13.266;2023-07-08T05:58:11;20.60;99.90
17687;DHT22;8962;52.538;13.266;2023-07-08T06:00:41;20.80;99.90
17687;DHT22;8962;52.538;13.266;2023-07-08T06:03:08;20.90;99.90
17687;DHT22;8962;52.538;13.266;2023-07-08T06:05:36;21.00;99.90
17687;DHT22;8962;52.538;13.266;2023-07-08T06:08:04;21.20;99.90
17687;DHT22;8962;52.538;13.266;2023-07-08T06:10:32;21.40;99.90
17687;DHT22;8962;52.538;13.266;2023-07-08T06:12:59;21.50;99.90
17687;DHT22;8962;52.538;13.266;2023-07-08T06:15:28;21.70;99.90
17687;DHT22;8962;52.538;13.266;2023-07-08T06:17:55;21.80;99.90
17687;DHT22;8962;52.538;13.266;2023-07-08T06:20:27;21.90;99.90
17687;DHT22;8962;52.538;13.266;2023-07-08T06:22:55;22.00;99.90
17687;DHT22;8962;52.538;13.266;2023-07-08T06:28:31;22.30;99.90
17687;DHT22;8962;52.538;13.266;2023-07-08T06:31:00;22.50;99.90
17687;DHT22;8962;52.538;13.266;2023-07-08T06:33:27;22.60;99.90
17687;DHT22;8962;52.538;13.266;2023-07-08T06:35:54;22.80;99.90
17687;DHT22;8962;52.538;13.266;2023-07-08T06:38:21;23.00;99.90
17687;DHT22;8962;52.538;13.266;2023-07-08T06:40:49;23.20;99.90
17687;DHT22;8962;52.538;13.266;2023-07-08T06:43:16;23.30;99.90
17687;DHT22;8962;52.538;13.266;2023-07-08T06:45:55;23.40;99.90
17687;DHT22;8962;52.538;13.266;2023-07-08T06:48:23;23.60;99.90
17687;DHT22;8962;52.538;13.266;2023-07-08T06:50:51;23.70;99.90
17687;DHT22;8962;52.538;13.266;2023-07-08T06:53:18;23.90;99.90
17687;DHT22;8962;52.538;13.266;2023-07-08T06:55:46;24.10;99.90
17687;DHT22;8962;52.538;13.266;2023-07-08T06:58:13;24.20;99.90
17687;DHT22;8962;52.538;13.266;2023-07-08T07:00:41;24.40;99.90
17687;DHT22;8962;52.538;13.266;2023-07-08T07:03:08;24.50;99.90
17687;DHT22;8962;52.538;13.266;2023-07-08T07:05:37;24.70;99.90
17687;DHT22;8962;52.538;13.266;2023-07-08T07:08:05;24.90;99.90
17687;DHT22;8962;52.538;13.266;2023-07-08T07:10:33;25.00;99.90
17687;DHT22;8962;52.538;13.266;2023-07-08T07:13:01;25.20;99.90
17687;DHT22;8962;52.538;13.266;2023-07-08T07:15:28;25.30;99.90
17687;DHT22;8962;52.538;13.266;2023-07-08T07:17:56;25.40;99.90
17687;DHT22;8962;52.538;13.266;2023-07-08T07:20:23;25.70;99.90
17687;DHT22;8962;52.538;13.266;2023-07-08T07:22:52;25.60;99.10
17687;DHT22;8962;52.538;13.266;2023-07-08T07:25:19;25.70;98.80
17687;DHT22;8962;52.538;13.266;2023-07-08T07:27:47;25.90;98.70
17687;DHT22;8962;52.538;13.266;2023-07-08T07:30:14;26.00;98.10
17687;DHT22;8962;52.538;13.266;2023-07-08T07:32:42;26.10;97.70
17687;DHT22;8962;52.538;13.266;2023-07-08T07:35:10;26.10;97.80
17687;DHT22;8962;52.538;13.266;2023-07-08T07:37:40;26.30;96.70
17687;DHT22;8962;52.538;13.266;2023-07-08T07:40:11;26.40;96.60
17687;DHT22;8962;52.538;13.266;2023-07-08T07:42:42;26.70;95.70
17687;DHT22;8962;52.538;13.266;2023-07-08T07:45:10;26.70;95.00
17687;DHT22;8962;52.538;13.266;2023-07-08T07:47:37;27.00;95.00
17687;DHT22;8962;52.538;13.266;2023-07-08T07:50:06;27.10;93.80
17687;DHT22;8962;52.538;13.266;2023-07-08T07:52:33;27.10;93.80
17687;DHT22;8962;52.538;13.266;2023-07-08T07:55:01;27.40;94.30
17687;DHT22;8962;52.538;13.266;2023-07-08T07:57:33;27.60;94.10
17687;DHT22;8962;52.538;13.266;2023-07-08T08:00:00;27.60;92.60
17687;DHT22;8962;52.538;13.266;2023-07-08T08:02:39;27.50;91.80
17687;DHT22;8962;52.538;13.266;2023-07-08T08:05:08;27.60;92.10
17687;DHT22;8962;52.538;13.266;2023-07-08T08:07:35;27.70;91.30
17687;DHT22;8962;52.538;13.266;2023-07-08T08:10:03;27.90;90.70
17687;DHT22;8962;52.538;13.266;2023-07-08T08:12:31;27.90;90.90
17687;DHT22;8962;52.538;13.266;2023-07-08T08:14:59;28.00;90.50
17687;DHT22;8962;52.538;13.266;2023-07-08T08:17:26;28.10;90.30
17687;DHT22;8962;52.538;13.266;2023-07-08T08:19:53;28.10;90.00
17687;DHT22;8962;52.538;13.266;2023-07-08T08:22:20;28.30;88.80
17687;DHT22;8962;52.538;13.266;2023-07-08T08:24:49;28.20;89.10
17687;DHT22;8962;52.538;13.266;2023-07-08T08:27:16;28.10;88.70
17687;DHT22;8962;52.538;13.266;2023-07-08T08:29:43;28.20;86.20
17687;DHT22;8962;52.538;13.266;2023-07-08T08:32:12;28.40;86.50
17687;DHT22;8962;52.538;13.266;2023-07-08T08:34:40;28.50;83.20
17687;DHT22;8962;52.538;13.266;2023-07-08T08:37:08;28.80;81.70
17687;DHT22;8962;52.538;13.266;2023-07-08T08:39:35;28.70;80.40
17687;DHT22;8962;52.538;13.266;2023-07-08T08:42:02;28.90;80.60
17687;DHT22;8962;52.538;13.266;2023-07-08T08:44:33;29.10;77.30
17687;DHT22;8962;52.538;13.266;2023-07-08T08:47:06;29.10;77.90
17687;DHT22;8962;52.538;13.266;2023-07-08T08:49:43;29.10;78.20
17687;DHT22;8962;52.538;13.266;2023-07-08T08:52:11;29.20;76.00
17687;DHT22;8962;52.538;13.266;2023-07-08T08:54:40;29.20;71.80
17687;DHT22;8962;52.538;13.266;2023-07-08T08:57:20;29.20;68.20
17687;DHT22;8962;52.538;13.266;2023-07-08T08:59:53;29.40;68.40
17687;DHT22;8962;52.538;13.266;2023-07-08T09:02:28;29.60;67.00
17687;DHT22;8962;52.538;13.266;2023-07-08T09:05:03;29.80;65.40
17687;DHT22;8962;52.538;13.266;2023-07-08T09:07:36;29.80;61.80
17687;DHT22;8962;52.538;13.266;2023-07-08T09:10:10;30.00;60.30
17687;DHT22;8962;52.538;13.266;2023-07-08T09:12:40;30.10;59.80
17687;DHT22;8962;52.538;13.266;2023-07-08T09:15:13;30.20;58.50
17687;DHT22;8962;52.538;13.266;2023-07-08T09:17:40;30.40;56.20
17687;DHT22;8962;52.538;13.266;2023-07-08T09:20:19;30.40;52.70
17687;DHT22;8962;52.538;13.266;2023-07-08T09:22:51;30.50;47.10
17687;DHT22;8962;52.538;13.266;2023-07-08T09:25:25;30.10;42.80
17687;DHT22;8962;52.538;13.266;2023-07-08T09:27:53;30.00;41.90
17687;DHT22;8962;52.538;13.266;2023-07-08T09:30:22;30.20;42.10
17687;DHT22;8962;52.538;13.266;2023-07-08T09:32:51;30.00;42.60
17687;DHT22;8962;52.538;13.266;2023-07-08T09:35:22;30.30;41.20
17687;DHT22;8962;52.538;13.266;2023-07-08T09:37:50;30.20;40.50
17687;DHT22;8962;52.538;13.266;2023-07-08T09:40:21;30.30;39.10
17687;DHT22;8962;52.538;13.266;2023-07-08T09:42:51;30.40;41.90
17687;DHT22;8962;52.538;13.266;2023-07-08T09:45:21;30.70;42.40
17687;DHT22;8962;52.538;13.266;2023-07-08T09:47:53;30.70;41.80
17687;DHT22;8962;52.538;13.266;2023-07-08T09:50:25;30.60;40.60
17687;DHT22;8962;52.538;13.266;2023-07-08T09:52:54;30.60;39.40
17687;DHT22;8962;52.538;13.266;2023-07-08T09:55:23;30.80;38.10
17687;DHT22;8962;52.538;13.266;2023-07-08T09:57:52;30.70;37.50
17687;DHT22;8962;52.538;13.266;2023-07-08T10:00:27;30.70;39.00
17687;DHT22;8962;52.538;13.266;2023-07-08T10:02:56;31.00;40.20
17687;DHT22;8962;52.538;13.266;2023-07-08T10:05:30;30.70;38.80
17687;DHT22;8962;52.538;13.266;2023-07-08T10:07:59;30.90;38.80
17687;DHT22;8962;52.538;13.266;2023-07-08T10:10:30;31.00;38.10
17687;DHT22;8962;52.538;13.266;2023-07-08T10:13:00;31.20;38.90
17687;DHT22;8962;52.538;13.266;2023-07-08T10:15:34;31.30;36.10
17687;DHT22;8962;52.538;13.266;2023-07-08T10:18:03;31.50;34.50
17687;DHT22;8962;52.538;13.266;2023-07-08T10:20:42;31.50;33.00
17687;DHT22;8962;52.538;13.266;2023-07-08T10:23:19;31.50;33.00
17687;DHT22;8962;52.538;13.266;2023-07-08T10:25:56;31.50;34.20
17687;DHT22;8962;52.538;13.266;2023-07-08T10:28:33;30.70;32.60
17687;DHT22;8962;52.538;13.266;2023-07-08T10:31:11;30.40;33.70
17687;DHT22;8962;52.538;13.266;2023-07-08T10:33:49;30.50;33.20
17687;DHT22;8962;52.538;13.266;2023-07-08T10:36:25;30.70;32.50
17687;DHT22;8962;52.538;13.266;2023-07-08T10:42:00;30.80;32.90
17687;DHT22;8962;52.538;13.266;2023-07-08T10:44:35;30.90;32.70
17687;DHT22;8962;52.538;13.266;2023-07-08T10:47:15;30.70;31.80
17687;DHT22;8962;52.538;13.266;2023-07-08T10:49:57;30.60;32.50
17687;DHT22;8962;52.538;13.266;2023-07-08T10:52:48;30.40;32.20
17687;DHT22;8962;52.538;13.266;2023-07-08T10:55:28;30.30;32.10
17687;DHT22;8962;52.538;13.266;2023-07-08T10:58:23;30.40;30.90
17687;DHT22;8962;52.538;13.266;2023-07-08T11:00:59;30.50;31.70
17687;DHT22;8962;52.538;13.266;2023-07-08T11:03:49;30.60;33.10
17687;DHT22;8962;52.538;13.266;2023-07-08T11:06:24;30.90;31.20
17687;DHT22;8962;52.538;13.266;2023-07-08T11:08:56;30.90;28.70
17687;DHT22;8962;52.538;13.266;2023-07-08T11:11:33;30.80;29.00
17687;DHT22;8962;52.538;13.266;2023-07-08T11:14:08;30.80;29.00
17687;DHT22;8962;52.538;13.266;2023-07-08T11:16:41;30.80;29.30
17687;DHT22;8962;52.538;13.266;2023-07-08T11:19:17;30.90;29.00
17687;DHT22;8962;52.538;13.266;2023-07-08T11:21:47;31.00;28.60
17687;DHT22;8962;52.538;13.266;2023-07-08T11:24:28;31.00;28.10
17687;DHT22;8962;52.538;13.266;2023-07-08T11:27:01;31.10;28.90
17687;DHT22;8962;52.538;13.266;2023-07-08T11:29:37;31.10;28.40
17687;DHT22;8962;52.538;13.266;2023-07-08T11:32:11;31.30;28.80
17687;DHT22;8962;52.538;13.266;2023-07-08T11:34:41;31.30;28.10
17687;DHT22;8962;52.538;13.266;2023-07-08T11:37:10;31.30;28.90
17687;DHT22;8962;52.538;13.266;2023-07-08T11:39:42;31.40;29.40
17687;DHT22;8962;52.538;13.266;2023-07-08T11:42:17;32.20;29.50
17687;DHT22;8962;52.538;13.266;2023-07-08T11:44:48;33.70;27.40
17687;DHT22;8962;52.538;13.266;2023-07-08T11:47:22;34.60;25.00
17687;DHT22;8962;52.538;13.266;2023-07-08T11:49:52;35.20;23.60
17687;DHT22;8962;52.538;13.266;2023-07-08T11:52:20;35.50;22.30
17687;DHT22;8962;52.538;13.266;2023-07-08T11:55:00;36.40;21.80
17687;DHT22;8962;52.538;13.266;2023-07-08T11:57:37;36.50;21.20
17687;DHT22;8962;52.538;13.266;2023-07-08T12:00:16;36.50;21.50
17687;DHT22;8962;52.538;13.266;2023-07-08T12:02:50;37.00;19.70
17687;DHT22;8962;52.538;13.266;2023-07-08T12:05:29;37.30;18.80
17687;DHT22;8962;52.538;13.266;2023-07-08T12:07:58;37.80;17.70
17687;DHT22;8962;52.538;13.266;2023-07-08T12:10:33;37.80;17.90
17687;DHT22;8962;52.538;13.266;2023-07-08T12:13:01;37.90;18.10
17687;DHT22;8962;52.538;13.266;2023-07-08T12:15:30;37.80;18.60
17687;DHT22;8962;52.538;13.266;2023-07-08T12:18:02;37.80;17.30
17687;DHT22;8962;52.538;13.266;2023-07-08T12:20:35;37.10;16.40
17687;DHT22;8962;52.538;13.266;2023-07-08T12:23:04;37.10;17.50
17687;DHT22;8962;52.538;13.266;2023-07-08T12:25:37;37.30;17.50
17687;DHT22;8962;52.538;13.266;2023-07-08T12:28:05;37.40;17.00
17687;DHT22;8962;52.538;13.266;2023-07-08T12:30:33;38.10;16.40
17687;DHT22;8962;52.538;13.266;2023-07-08T12:33:01;39.10;15.80
17687;DHT22;8962;52.538;13.266;2023-07-08T12:35:31;39.70;14.50
17687;DHT22;8962;52.538;13.266;2023-07-08T12:38:01;39.70;15.60
17687;DHT22;8962;52.538;13.266;2023-07-08T12:40:30;39.80;16.40
17687;DHT22;8962;52.538;13.266;2023-07-08T12:42:59;39.90;15.90
17687;DHT22;8962;52.538;13.266;2023-07-08T12:45:29;39.90;15.00
17687;DHT22;8962;52.538;13.266;2023-07-08T12:47:57;40.20;14.40
17687;DHT22;8962;52.538;13.266;2023-07-08T12:50:24;40.70;13.90
17687;DHT22;8962;52.538;13.266;2023-07-08T12:52:51;41.00;12.10
17687;DHT22;8962;52.538;13.266;2023-07-08T12:55:19;40.90;12.70
17687;DHT22;8962;52.538;13.266;2023-07-08T12:57:49;40.70;13.20
17687;DHT22;8962;52.538;13.266;2023-07-08T13:00:25;41.00;12.00
17687;DHT22;8962;52.538;13.266;2023-07-08T13:02:57;40.70;11.90
17687;DHT22;8962;52.538;13.266;2023-07-08T13:05:26;40.30;12.90
17687;DHT22;8962;52.538;13.266;2023-07-08T13:07:56;39.90;12.20
17687;DHT22;8962;52.538;13.266;2023-07-08T13:10:26;38.80;13.50
17687;DHT22;8962;52.538;13.266;2023-07-08T13:12:58;39.30;13.30
17687;DHT22;8962;52.538;13.266;2023-07-08T13:15:32;39.10;13.20
17687;DHT22;8962;52.538;13.266;2023-07-08T13:18:02;39.70;12.40
17687;DHT22;8962;52.538;13.266;2023-07-08T13:20:30;40.50;11.90
17687;DHT22;8962;52.538;13.266;2023-07-08T13:23:00;40.80;11.80
17687;DHT22;8962;52.538;13.266;2023-07-08T13:25:29;41.20;11.70
17687;DHT22;8962;52.538;13.266;2023-07-08T13:27:58;39.20;12.60
17687;DHT22;8962;52.538;13.266;2023-07-08T13:30:30;39.40;12.20
17687;DHT22;8962;52.538;13.266;2023-07-08T13:32:58;39.20;13.30
17687;DHT22;8962;52.538;13.266;2023-07-08T13:35:28;40.10;12.60
17687;DHT22;8962;52.538;13.266;2023-07-08T13:38:02;40.80;11.20
17687;DHT22;8962;52.538;13.266;2023-07-08T13:40:30;40.90;11.60
17687;DHT22;8962;52.538;13.266;2023-07-08T13:42:58;40.90;11.60
17687;DHT22;8962;52.538;13.266;2023-07-08T13:45:30;41.10;11.30
17687;DHT22;8962;52.538;13.266;2023-07-08T13:48:01;40.10;11.50
17687;DHT22;8962;52.538;13.266;2023-07-08T13:50:34;39.30;12.10
17687;DHT22;8962;52.538;13.266;2023-07-08T13:53:02;39.60;12.50
17687;DHT22;8962;52.538;13.266;2023-07-08T13:55:30;39.40;11.60
17687;DHT22;8962;52.538;13.266;2023-07-08T13:57:59;40.70;11.60
17687;DHT22;8962;52.538;13.266;2023-07-08T14:00:29;41.40;10.90
17687;DHT22;8962;52.538;13.266;2023-07-08T14:02:59;42.20;10.20
17687;DHT22;8962;52.538;13.266;2023-07-08T14:05:27;42.40;9.90
17687;DHT22;8962;52.538;13.266;2023-07-08T14:07:54;42.10;9.50
17687;DHT22;8962;52.538;13.266;2023-07-08T14:10:21;40.30;10.70
17687;DHT22;8962;52.538;13.266;2023-07-08T14:12:48;40.10;11.50
17687;DHT22;8962;52.538;13.266;2023-07-08T14:15:15;41.30;11.00
17687;DHT22;8962;52.538;13.266;2023-07-08T14:17:42;41.90;10.50
17687;DHT22;8962;52.538;13.266;2023-07-08T14:20:15;42.30;9.90
17687;DHT22;8962;52.538;13.266;2023-07-08T14:22:44;41.70;9.80
17687;DHT22;8962;52.538;13.266;2023-07-08T14:25:14;41.00;10.20
17687;DHT22;8962;52.538;13.266;2023-07-08T14:27:42;40.30;10.90
17687;DHT22;8962;52.538;13.266;2023-07-08T14:30:10;39.90;10.80
17687;DHT22;8962;52.538;13.266;2023-07-08T14:32:38;39.80;11.40
17687;DHT22;8962;52.538;13.266;2023-07-08T14:35:16;39.60;11.30
17687;DHT22;8962;52.538;13.266;2023-07-08T14:37:44;39.90;11.00
17687;DHT22;8962;52.538;13.266;2023-07-08T14:40:21;40.50;10.90
17687;DHT22;8962;52.538;13.266;2023-07-08T14:42:51;41.60;9.40
17687;DHT22;8962;52.538;13.266;2023-07-08T14:45:21;41.40;10.50
17687;DHT22;8962;52.538;13.266;2023-07-08T14:47:48;40.90;10.50
17687;DHT22;8962;52.538;13.266;2023-07-08T14:50:17;40.50;10.80
17687;DHT22;8962;52.538;13.266;2023-07-08T14:52:44;41.00;10.80
17687;DHT22;8962;52.538;13.266;2023-07-08T14:55:12;41.60;10.00
17687;DHT22;8962;52.538;13.266;2023-07-08T14:57:43;42.10;9.30
17687;DHT22;8962;52.538;13.266;2023-07-08T15:00:13;41.90;9.20
17687;DHT22;8962;52.538;13.266;2023-07-08T15:02:42;41.30;9.70
17687;DHT22;8962;52.538;13.266;2023-07-08T15:05:14;41.90;9.50
17687;DHT22;8962;52.538;13.266;2023-07-08T15:07:43;42.90;9.40
17687;DHT22;8962;52.538;13.266;2023-07-08T15:10:12;43.30;8.70
17687;DHT22;8962;52.538;13.266;2023-07-08T15:12:39;43.50;8.40
17687;DHT22;8962;52.538;13.266;2023-07-08T15:15:15;42.00;9.30
17687;DHT22;8962;52.538;13.266;2023-07-08T15:17:43;41.60;10.00
17687;DHT22;8962;52.538;13.266;2023-07-08T15:20:13;42.70;9.30
17687;DHT22;8962;52.538;13.266;2023-07-08T15:22:44;43.40;8.70
17687;DHT22;8962;52.538;13.266;2023-07-08T15:25:13;44.00;8.10
17687;DHT22;8962;52.538;13.266;2023-07-08T15:27:42;44.30;7.70
17687;DHT22;8962;52.538;13.266;2023-07-08T15:30:18;42.70;8.50
17687;DHT22;8962;52.538;13.266;2023-07-08T15:32:47;42.00;9.30
17687;DHT22;8962;52.538;13.266;2023-07-08T15:35:17;40.00;10.20
17687;DHT22;8962;52.538;13.266;2023-07-08T15:37:47;40.80;9.90
17687;DHT22;8962;52.538;13.266;2023-07-08T15:40:17;40.90;9.90
17687;DHT22;8962;52.538;13.266;2023-07-08T15:42:46;42.10;9.10
17687;DHT22;8962;52.538;13.266;2023-07-08T15:45:16;43.70;7.80
17687;DHT22;8962;52.538;13.266;2023-07-08T15:47:44;43.70;7.70
17687;DHT22;8962;52.538;13.266;2023-07-08T15:50:13;43.00;7.90
17687;DHT22;8962;52.538;13.266;2023-07-08T15:52:42;43.00;7.90
17687;DHT22;8962;52.538;13.266;2023-07-08T15:55:12;44.00;7.40